createdAt,value
2024-01-11T00:00:22.876Z,838.00
2024-01-11T00:01:22.991Z,839.00
2024-01-11T00:02:23.124Z,838.00
2024-01-11T00:03:23.157Z,841.00
2024-01-11T00:04:23.298Z,837.00
2024-01-11T00:05:23.376Z,840.00
2024-01-11T00:06:23.472Z,837.00
2024-01-11T00:07:23.505Z,836.00
2024-01-11T00:08:23.668Z,837.00
2024-01-11T00:09:23.665Z,836.00
2024-01-11T00:10:23.761Z,834.00
2024-01-11T00:11:23.869Z,834.00
2024-01-11T00:12:23.925Z,833.00
2024-01-11T00:13:24.015Z,833.00
2024-01-11T00:14:24.128Z,832.00
2024-01-11T00:15:24.253Z,834.00
2024-01-11T00:16:24.277Z,836.00
2024-01-11T00:17:24.399Z,837.00
2024-01-11T00:18:24.485Z,835.00
2024-01-11T00:19:24.662Z,832.00
2024-01-11T00:20:24.653Z,833.00
2024-01-11T00:21:24.717Z,830.00
2024-01-11T00:22:24.795Z,826.00
2024-01-11T00:23:24.924Z,828.00
2024-01-11T00:24:24.978Z,824.00
2024-01-11T00:25:25.069Z,822.00
2024-01-11T00:26:25.208Z,826.00
2024-01-11T00:27:25.230Z,825.00
2024-01-11T00:28:25.318Z,823.00
2024-01-11T00:29:25.432Z,827.00
2024-01-11T00:30:25.535Z,829.00
2024-01-11T00:31:25.584Z,830.00
2024-01-11T00:32:25.710Z,830.00
2024-01-11T00:33:25.862Z,832.00
2024-01-11T00:34:25.917Z,828.00
2024-01-11T00:35:25.964Z,826.00
2024-01-11T00:36:26.002Z,826.00
2024-01-11T00:37:26.086Z,826.00
2024-01-11T00:38:26.182Z,826.00
2024-01-11T00:39:26.246Z,827.00
2024-01-11T00:40:26.403Z,824.00
2024-01-11T00:41:26.481Z,821.00
2024-01-11T00:42:26.486Z,819.00
2024-01-11T00:43:26.581Z,817.00
2024-01-11T00:44:26.716Z,817.00
2024-01-11T00:45:26.746Z,817.00
2024-01-11T00:46:26.823Z,817.00
2024-01-11T00:47:27.018Z,818.00
2024-01-11T00:48:27.073Z,821.00
2024-01-11T00:49:27.132Z,819.00
2024-01-11T00:50:27.218Z,820.00
2024-01-11T00:51:27.229Z,821.00
2024-01-11T00:52:27.305Z,824.00
2024-01-11T00:53:27.403Z,823.00
2024-01-11T00:54:27.497Z,820.00
2024-01-11T00:55:27.575Z,815.00
2024-01-11T00:56:27.701Z,816.00
2024-01-11T00:57:27.749Z,813.00
2024-01-11T00:58:27.825Z,810.00
2024-01-11T00:59:27.957Z,811.00
2024-01-11T01:00:27.994Z,811.00
2024-01-11T01:01:28.177Z,811.00
2024-01-11T01:02:28.231Z,810.00
2024-01-11T01:03:28.274Z,810.00
2024-01-11T01:04:28.335Z,812.00
2024-01-11T01:05:28.490Z,812.00
2024-01-11T01:06:28.541Z,813.00
2024-01-11T01:07:28.629Z,813.00
2024-01-11T01:08:28.761Z,811.00
2024-01-11T01:09:28.900Z,814.00
2024-01-11T01:10:28.942Z,814.00
2024-01-11T01:11:29.055Z,813.00
2024-01-11T01:12:29.047Z,812.00
2024-01-11T01:13:29.149Z,806.00
2024-01-11T01:14:29.234Z,805.00
2024-01-11T01:15:29.317Z,807.00
2024-01-11T01:16:29.398Z,808.00
2024-01-11T01:17:29.594Z,808.00
2024-01-11T01:18:29.625Z,809.00
2024-01-11T01:19:29.688Z,807.00
2024-01-11T01:20:29.838Z,809.00
2024-01-11T01:21:29.868Z,812.00
2024-01-11T01:22:29.956Z,813.00
2024-01-11T01:23:30.070Z,810.00
2024-01-11T01:24:30.129Z,807.00
2024-01-11T01:25:30.196Z,807.00
2024-01-11T01:26:30.346Z,809.00
2024-01-11T01:27:30.378Z,810.00
2024-01-11T01:28:30.450Z,812.00
2024-01-11T01:29:30.585Z,811.00
2024-01-11T01:30:30.637Z,810.00
2024-01-11T01:31:30.736Z,812.00
2024-01-11T01:32:30.913Z,811.00
2024-01-11T01:33:30.917Z,810.00
2024-01-11T01:34:30.975Z,806.00
2024-01-11T01:35:31.050Z,806.00
2024-01-11T01:36:31.110Z,806.00
2024-01-11T01:37:31.189Z,806.00
2024-01-11T01:38:31.328Z,806.00
2024-01-11T01:39:31.370Z,802.00
2024-01-11T01:40:31.427Z,807.00
2024-01-11T01:41:31.561Z,805.00
2024-01-11T01:42:31.590Z,807.00
2024-01-11T01:43:31.674Z,807.00
2024-01-11T01:44:31.803Z,806.00
2024-01-11T01:45:31.855Z,803.00
2024-01-11T01:46:31.992Z,802.00
2024-01-11T01:47:32.291Z,800.00
2024-01-11T01:48:32.271Z,800.00
2024-01-11T01:49:32.271Z,796.00
2024-01-11T01:50:32.326Z,793.00
2024-01-11T01:51:32.375Z,794.00
2024-01-11T01:52:32.456Z,794.00
2024-01-11T01:53:32.591Z,791.00
2024-01-11T01:54:32.626Z,790.00
2024-01-11T01:55:32.708Z,792.00
2024-01-11T01:56:32.884Z,788.00
2024-01-11T01:57:32.870Z,786.00
2024-01-11T01:58:32.958Z,785.00
2024-01-11T01:59:33.142Z,788.00
2024-01-11T02:00:33.142Z,788.00
2024-01-11T02:01:33.258Z,787.00
2024-01-11T02:02:33.427Z,788.00
2024-01-11T02:03:33.480Z,789.00
2024-01-11T02:04:33.480Z,791.00
2024-01-11T02:05:33.720Z,794.00
2024-01-11T02:06:33.738Z,797.00
2024-01-11T02:07:33.802Z,794.00
2024-01-11T02:08:33.998Z,788.00
2024-01-11T02:09:33.938Z,782.00
2024-01-11T02:10:34.919Z,782.00
2024-01-11T02:11:34.270Z,783.00
2024-01-11T02:12:34.202Z,785.00
2024-01-11T02:13:34.288Z,787.00
2024-01-11T02:14:34.468Z,787.00
2024-01-11T02:15:34.453Z,787.00
2024-01-11T02:16:34.552Z,787.00
2024-01-11T02:17:35.512Z,785.00
2024-01-11T02:18:34.846Z,788.00
2024-01-11T02:19:34.878Z,784.00
2024-01-11T02:20:34.954Z,784.00
2024-01-11T02:21:34.978Z,781.00
2024-01-11T02:22:35.079Z,779.00
2024-01-11T02:23:35.254Z,783.00
2024-01-11T02:24:35.271Z,783.00
2024-01-11T02:25:35.339Z,783.00
2024-01-11T02:26:35.544Z,785.00
2024-01-11T02:27:35.532Z,784.00
2024-01-11T02:28:35.640Z,783.00
2024-01-11T02:29:35.826Z,779.00
2024-01-11T02:30:35.829Z,775.00
2024-01-11T02:31:35.893Z,775.00
2024-01-11T02:32:36.062Z,775.00
2024-01-11T02:33:36.198Z,779.00
2024-01-11T02:34:36.287Z,780.00
2024-01-11T02:35:36.304Z,778.00
2024-01-11T02:36:36.348Z,777.00
2024-01-11T02:37:36.431Z,780.00
2024-01-11T02:38:36.590Z,781.00
2024-01-11T02:39:36.618Z,781.00
2024-01-11T02:40:36.714Z,779.00
2024-01-11T02:41:36.895Z,781.00
2024-01-11T02:42:36.955Z,782.00
2024-01-11T02:43:36.998Z,780.00
2024-01-11T02:44:37.152Z,783.00
2024-01-11T02:45:37.158Z,784.00
2024-01-11T02:46:37.249Z,783.00
2024-01-11T02:47:37.467Z,784.00
2024-01-11T02:48:37.592Z,782.00
2024-01-11T02:49:37.831Z,779.00
2024-01-11T02:50:37.674Z,776.00
2024-01-11T02:51:37.734Z,776.00
2024-01-11T02:52:37.805Z,778.00
2024-01-11T02:53:38.042Z,780.00
2024-01-11T02:54:37.972Z,781.00
2024-01-11T02:55:38.182Z,780.00
2024-01-11T02:56:38.298Z,777.00
2024-01-11T02:57:38.290Z,778.00
2024-01-11T02:58:38.323Z,777.00
2024-01-11T02:59:38.436Z,778.00
2024-01-11T03:00:38.548Z,778.00
2024-01-11T03:01:38.586Z,778.00
2024-01-11T03:02:38.845Z,778.00
2024-01-11T03:03:38.799Z,778.00
2024-01-11T03:04:38.827Z,774.00
2024-01-11T03:05:39.074Z,773.00
2024-01-11T03:06:39.062Z,771.00
2024-01-11T03:07:39.079Z,775.00
2024-01-11T03:08:39.234Z,775.00
2024-01-11T03:09:39.257Z,770.00
2024-01-11T03:10:39.347Z,769.00
2024-01-11T03:11:39.499Z,769.00
2024-01-11T03:12:39.521Z,766.00
2024-01-11T03:13:39.615Z,766.00
2024-01-11T03:14:39.687Z,766.00
2024-01-11T03:15:39.764Z,765.00
2024-01-11T03:16:39.855Z,765.00
2024-01-11T03:17:40.114Z,765.00
2024-01-11T03:18:40.079Z,765.00
2024-01-11T03:19:40.118Z,765.00
2024-01-11T03:20:40.233Z,766.00
2024-01-11T03:21:40.288Z,764.00
2024-01-11T03:22:40.365Z,763.00
2024-01-11T03:23:40.463Z,764.00
2024-01-11T03:24:40.550Z,764.00
2024-01-11T03:25:40.639Z,762.00
2024-01-11T03:26:40.823Z,761.00
2024-01-11T03:27:40.813Z,762.00
2024-01-11T03:28:40.872Z,765.00
2024-01-11T03:29:41.090Z,765.00
2024-01-11T03:30:41.101Z,762.00
2024-01-11T03:31:41.141Z,764.00
2024-01-11T03:32:41.410Z,761.00
2024-01-11T03:33:41.448Z,761.00
2024-01-11T03:34:41.391Z,758.00
2024-01-11T03:35:41.635Z,759.00
2024-01-11T03:36:41.615Z,757.00
2024-01-11T03:37:41.665Z,756.00
2024-01-11T03:38:41.755Z,757.00
2024-01-11T03:39:41.841Z,756.00
2024-01-11T03:40:41.923Z,756.00
2024-01-11T03:41:42.035Z,759.00
2024-01-11T03:42:42.114Z,760.00
2024-01-11T03:43:42.303Z,760.00
2024-01-11T03:44:42.408Z,759.00
2024-01-11T03:45:42.360Z,757.00
2024-01-11T03:46:42.462Z,756.00
2024-01-11T03:47:42.621Z,755.00
2024-01-11T03:48:42.785Z,754.00
2024-01-11T03:49:42.720Z,755.00
2024-01-11T03:50:42.828Z,753.00
2024-01-11T03:51:42.900Z,753.00
2024-01-11T03:52:42.974Z,751.00
2024-01-11T03:53:43.188Z,749.00
2024-01-11T03:54:43.152Z,746.00
2024-01-11T03:55:43.244Z,745.00
2024-01-11T03:56:43.360Z,746.00
2024-01-11T03:57:43.417Z,746.00
2024-01-11T03:58:43.495Z,745.00
2024-01-11T03:59:43.634Z,745.00
2024-01-11T04:00:43.747Z,747.00
2024-01-11T04:01:43.741Z,747.00
2024-01-11T04:02:43.902Z,749.00
2024-01-11T04:03:43.929Z,747.00
2024-01-11T04:04:44.003Z,746.00
2024-01-11T04:05:44.204Z,748.00
2024-01-11T04:06:44.210Z,749.00
2024-01-11T04:07:44.244Z,750.00
2024-01-11T04:08:44.404Z,747.00
2024-01-11T04:09:44.425Z,747.00
2024-01-11T04:10:44.525Z,746.00
2024-01-11T04:11:44.656Z,745.00
2024-01-11T04:12:44.682Z,745.00
2024-01-11T04:13:44.781Z,747.00
2024-01-11T04:14:44.897Z,745.00
2024-01-11T04:15:44.951Z,744.00
2024-01-11T04:16:45.035Z,747.00
2024-01-11T04:17:45.270Z,745.00
2024-01-11T04:18:45.289Z,744.00
2024-01-11T04:19:45.279Z,746.00
2024-01-11T04:20:45.395Z,747.00
2024-01-11T04:21:45.459Z,746.00
2024-01-11T04:22:45.547Z,749.00
2024-01-11T04:23:45.646Z,746.00
2024-01-11T04:24:45.704Z,744.00
2024-01-11T04:25:45.878Z,745.00
2024-01-11T04:26:46.534Z,745.00
2024-01-11T04:27:45.942Z,744.00
2024-01-11T04:28:46.019Z,743.00
2024-01-11T04:29:46.156Z,741.00
2024-01-11T04:30:46.219Z,740.00
2024-01-11T04:31:46.315Z,741.00
2024-01-11T04:32:46.402Z,741.00
2024-01-11T04:33:46.480Z,740.00
2024-01-11T04:34:46.498Z,739.00
2024-01-11T04:35:46.697Z,739.00
2024-01-11T04:36:46.675Z,738.00
2024-01-11T04:37:46.801Z,738.00
2024-01-11T04:38:46.935Z,738.00
2024-01-11T04:39:46.884Z,738.00
2024-01-11T04:40:46.966Z,741.00
2024-01-11T04:41:47.116Z,741.00
2024-01-11T04:42:47.120Z,737.00
2024-01-11T04:43:47.189Z,735.00
2024-01-11T04:44:47.316Z,736.00
2024-01-11T04:45:47.330Z,737.00
2024-01-11T04:46:47.417Z,735.00
2024-01-11T04:47:47.759Z,735.00
2024-01-11T04:48:47.653Z,733.00
2024-01-11T04:49:47.638Z,732.00
2024-01-11T04:50:47.749Z,730.00
2024-01-11T04:51:47.809Z,730.00
2024-01-11T04:52:47.884Z,734.00
2024-01-11T04:53:47.981Z,734.00
2024-01-11T04:54:48.032Z,734.00
2024-01-11T04:55:48.103Z,734.00
2024-01-11T04:56:48.236Z,733.00
2024-01-11T04:57:48.294Z,729.00
2024-01-11T04:58:48.348Z,730.00
2024-01-11T04:59:48.483Z,733.00
2024-01-11T05:00:55.920Z,763.00
2024-01-11T05:01:55.896Z,757.00
2024-01-11T05:02:56.039Z,754.00
2024-01-11T05:03:55.988Z,750.00
2024-01-11T05:04:56.030Z,750.00
2024-01-11T05:05:56.054Z,750.00
2024-01-11T05:06:56.106Z,750.00
2024-01-11T05:07:56.146Z,748.00
2024-01-11T05:08:56.153Z,747.00
2024-01-11T05:09:56.185Z,746.00
2024-01-11T05:10:56.265Z,746.00
2024-01-11T05:11:56.277Z,748.00
2024-01-11T05:12:56.309Z,747.00
2024-01-11T05:13:56.376Z,747.00
2024-01-11T05:14:56.367Z,744.00
2024-01-11T05:15:56.406Z,744.00
2024-01-11T05:16:56.488Z,742.00
2024-01-11T05:17:56.586Z,741.00
2024-01-11T05:18:56.622Z,742.00
2024-01-11T05:19:57.464Z,743.00
2024-01-11T05:20:56.605Z,740.00
2024-01-11T05:21:56.624Z,739.00
2024-01-11T05:22:56.709Z,735.00
2024-01-11T05:23:56.708Z,733.00
2024-01-11T05:24:56.759Z,732.00
2024-01-11T05:25:56.841Z,733.00
2024-01-11T05:26:56.825Z,736.00
2024-01-11T05:27:56.859Z,735.00
2024-01-11T05:28:56.923Z,736.00
2024-01-11T05:29:57.038Z,738.00
2024-01-11T05:30:57.094Z,735.00
2024-01-11T05:31:57.126Z,735.00
2024-01-11T05:32:57.183Z,732.00
2024-01-11T05:33:57.191Z,732.00
2024-01-11T05:34:57.239Z,727.00
2024-01-11T05:35:57.158Z,726.00
2024-01-11T05:36:58.152Z,727.00
2024-01-11T05:37:57.345Z,726.00
2024-01-11T05:38:57.389Z,725.00
2024-01-11T05:39:57.452Z,723.00
2024-01-11T05:40:57.563Z,724.00
2024-01-11T05:41:57.614Z,719.00
2024-01-11T05:42:57.674Z,715.00
2024-01-11T05:43:57.821Z,714.00
2024-01-11T05:44:57.819Z,715.00
2024-01-11T05:45:57.903Z,716.00
2024-01-11T05:46:58.013Z,715.00
2024-01-11T05:47:58.088Z,715.00
2024-01-11T05:48:58.161Z,717.00
2024-01-11T05:49:58.241Z,714.00
2024-01-11T05:50:58.297Z,717.00
2024-01-11T05:51:58.372Z,720.00
2024-01-11T05:52:58.487Z,719.00
2024-01-11T05:53:58.499Z,715.00
2024-01-11T05:54:58.643Z,715.00
2024-01-11T05:55:58.724Z,716.00
2024-01-11T05:56:58.719Z,718.00
2024-01-11T05:57:58.787Z,721.00
2024-01-11T05:58:58.850Z,724.00
2024-01-11T05:59:58.929Z,725.00
2024-01-11T06:00:59.115Z,724.00
2024-01-11T06:01:59.086Z,720.00
2024-01-11T06:02:59.168Z,722.00
2024-01-11T06:03:59.254Z,722.00
2024-01-11T06:04:59.357Z,722.00
2024-01-11T06:05:59.449Z,721.00
2024-01-11T06:06:59.489Z,717.00
2024-01-11T06:07:59.596Z,718.00
2024-01-11T06:08:59.644Z,717.00
2024-01-11T06:09:59.718Z,717.00
2024-01-11T06:11:00.045Z,718.00
2024-01-11T06:11:59.884Z,719.00
2024-01-11T06:12:59.956Z,720.00
2024-01-11T06:14:00.058Z,721.00
2024-01-11T06:15:00.141Z,719.00
2024-01-11T06:16:00.224Z,718.00
2024-01-11T06:17:00.504Z,719.00
2024-01-11T06:18:00.491Z,717.00
2024-01-11T06:19:00.515Z,713.00
2024-01-11T06:20:00.648Z,711.00
2024-01-11T06:21:00.574Z,712.00
2024-01-11T06:22:00.661Z,710.00
2024-01-11T06:23:00.825Z,707.00
2024-01-11T06:24:00.811Z,706.00
2024-01-11T06:25:00.933Z,707.00
2024-01-11T06:26:01.035Z,730.00
2024-01-11T06:27:01.068Z,726.00
2024-01-11T06:28:01.147Z,722.00
2024-01-11T06:29:01.285Z,723.00
2024-01-11T06:30:01.314Z,725.00
2024-01-11T06:31:01.506Z,727.00
2024-01-11T06:32:01.551Z,726.00
2024-01-11T06:33:01.717Z,729.00
2024-01-11T06:34:02.623Z,731.00
2024-01-11T06:35:01.715Z,735.00
2024-01-11T06:36:01.702Z,733.00
2024-01-11T06:37:01.724Z,731.00
2024-01-11T06:38:01.831Z,733.00
2024-01-11T06:39:01.803Z,731.00
2024-01-11T06:40:01.899Z,730.00
2024-01-11T06:41:01.964Z,729.00
2024-01-11T06:42:01.936Z,728.00
2024-01-11T06:43:01.963Z,726.00
2024-01-11T06:44:02.299Z,730.00
2024-01-11T06:45:02.030Z,732.00
2024-01-11T06:46:02.059Z,731.00
2024-01-11T06:47:02.114Z,730.00
2024-01-11T06:48:02.268Z,732.00
2024-01-11T06:49:02.299Z,734.00
2024-01-11T06:50:04.042Z,735.00
2024-01-11T06:51:02.743Z,734.00
2024-01-11T06:52:02.404Z,735.00
2024-01-11T06:53:02.469Z,734.00
2024-01-11T06:54:02.543Z,734.00
2024-01-11T06:55:02.611Z,734.00
2024-01-11T06:56:02.685Z,734.00
2024-01-11T06:57:02.746Z,734.00
2024-01-11T06:58:02.810Z,733.00
2024-01-11T06:59:02.923Z,733.00
2024-01-11T07:00:03.014Z,732.00
2024-01-11T07:01:03.032Z,731.00
2024-01-11T07:02:03.142Z,737.00
2024-01-11T07:03:03.154Z,740.00
2024-01-11T07:04:03.260Z,739.00
2024-01-11T07:05:03.380Z,738.00
2024-01-11T07:06:03.471Z,737.00
2024-01-11T07:07:03.423Z,738.00
2024-01-11T07:08:04.490Z,738.00
2024-01-11T07:09:03.561Z,737.00
2024-01-11T07:10:03.631Z,735.00
2024-01-11T07:11:03.744Z,736.00
2024-01-11T07:12:03.753Z,736.00
2024-01-11T07:13:03.850Z,739.00
2024-01-11T07:14:03.940Z,741.00
2024-01-11T07:15:03.969Z,741.00
2024-01-11T07:16:04.047Z,742.00
2024-01-11T07:17:04.148Z,741.00
2024-01-11T07:18:05.332Z,743.00
2024-01-11T07:19:05.088Z,743.00
2024-01-11T07:20:04.354Z,744.00
2024-01-11T07:21:04.406Z,741.00
2024-01-11T07:22:04.485Z,739.00
2024-01-11T07:23:04.629Z,741.00
2024-01-11T07:24:04.626Z,742.00
2024-01-11T07:25:04.700Z,744.00
2024-01-11T07:26:04.853Z,744.00
2024-01-11T07:27:04.889Z,741.00
2024-01-11T07:28:04.943Z,740.00
2024-01-11T07:29:05.041Z,740.00
2024-01-11T07:30:06.009Z,742.00
2024-01-11T07:31:06.060Z,741.00
2024-01-11T07:32:05.672Z,742.00
2024-01-11T07:33:05.458Z,744.00
2024-01-11T07:34:05.496Z,740.00
2024-01-11T07:35:08.597Z,741.00
2024-01-11T07:36:07.482Z,740.00
2024-01-11T07:37:05.531Z,738.00
2024-01-11T07:38:05.607Z,738.00
2024-01-11T07:39:06.430Z,734.00
2024-01-11T07:40:05.668Z,733.00
2024-01-11T07:41:05.754Z,733.00
2024-01-11T07:42:05.751Z,736.00
2024-01-11T07:43:05.790Z,737.00
2024-01-11T07:44:05.955Z,733.00
2024-01-11T07:45:05.859Z,732.00
2024-01-11T07:46:05.893Z,736.00
2024-01-11T07:47:06.044Z,737.00
2024-01-11T07:48:06.156Z,735.00
2024-01-11T07:49:06.250Z,735.00
2024-01-11T07:50:06.179Z,735.00
2024-01-11T07:51:06.239Z,733.00
2024-01-11T07:52:06.283Z,733.00
2024-01-11T07:53:06.518Z,732.00
2024-01-11T07:54:06.667Z,733.00
2024-01-11T07:55:06.499Z,734.00
2024-01-11T07:56:06.599Z,735.00
2024-01-11T07:57:06.663Z,735.00
2024-01-11T07:58:06.742Z,736.00
2024-01-11T07:59:06.870Z,736.00
2024-01-11T08:00:07.513Z,737.00
2024-01-11T08:01:06.985Z,737.00
2024-01-11T08:02:07.080Z,736.00
2024-01-11T08:03:08.035Z,731.00
2024-01-11T08:04:07.224Z,734.00
2024-01-11T08:05:07.306Z,730.00
2024-01-11T08:06:08.007Z,731.00
2024-01-11T08:07:07.506Z,732.00
2024-01-11T08:08:07.529Z,734.00
2024-01-11T08:09:07.614Z,736.00
2024-01-11T08:10:07.824Z,737.00
2024-01-11T08:11:07.727Z,738.00
2024-01-11T08:12:07.785Z,740.00
2024-01-11T08:13:07.817Z,738.00
2024-01-11T08:14:07.941Z,738.00
2024-01-11T08:15:07.970Z,741.00
2024-01-11T08:16:08.935Z,744.00
2024-01-11T08:17:08.101Z,743.00
2024-01-11T08:18:08.158Z,743.00
2024-01-11T08:19:08.258Z,742.00
2024-01-11T08:20:08.335Z,744.00
2024-01-11T08:21:08.378Z,742.00
2024-01-11T08:22:08.438Z,745.00
2024-01-11T08:23:08.543Z,781.00
2024-01-11T08:24:08.570Z,817.00
2024-01-11T08:25:08.636Z,872.00
2024-01-11T08:26:08.751Z,889.00
2024-01-11T08:27:08.747Z,952.00
2024-01-11T08:28:08.817Z,972.00
2024-01-11T08:29:08.851Z,1029.00
2024-01-11T08:30:08.908Z,1054.00
2024-01-11T08:31:10.072Z,1064.00
2024-01-11T08:32:19.505Z,1111.00
2024-01-11T08:33:10.187Z,1130.00
2024-01-11T08:34:09.278Z,1145.00
2024-01-11T08:35:09.201Z,1218.00
2024-01-11T08:36:09.328Z,1233.00
2024-01-11T08:37:09.206Z,1243.00
2024-01-11T08:38:09.333Z,1258.00
2024-01-11T08:39:09.289Z,1297.00
2024-01-11T08:40:09.368Z,1322.00
2024-01-11T08:41:09.486Z,1343.00
2024-01-11T08:42:09.539Z,1385.00
2024-01-11T08:43:10.531Z,1400.00
2024-01-11T08:44:09.749Z,1416.00
2024-01-11T08:45:09.811Z,1443.00
2024-01-11T08:46:09.898Z,1479.00
2024-01-11T08:47:10.775Z,1515.00
2024-01-11T08:48:10.234Z,1539.00
2024-01-11T08:49:10.366Z,1567.00
2024-01-11T08:50:10.270Z,1598.00
2024-01-11T08:51:10.313Z,1622.00
2024-01-11T08:52:10.997Z,1654.00
2024-01-11T08:53:10.460Z,1667.00
2024-01-11T08:54:10.487Z,1683.00
2024-01-11T08:55:10.566Z,1714.00
2024-01-11T08:56:10.641Z,1753.00
2024-01-11T08:57:10.687Z,1773.00
2024-01-11T08:58:10.728Z,1793.00
2024-01-11T08:59:10.801Z,1817.00
2024-01-11T09:00:10.845Z,1856.00
2024-01-11T09:01:10.926Z,1882.00
2024-01-11T09:02:15.525Z,1905.00
2024-01-11T09:03:12.007Z,1938.00
2024-01-11T09:04:11.027Z,1959.00
2024-01-11T09:05:11.056Z,1984.00
2024-01-11T09:06:11.062Z,2003.00
2024-01-11T09:07:11.064Z,2045.00
2024-01-11T09:08:11.189Z,2065.00
2024-01-11T09:09:11.108Z,2103.00
2024-01-11T09:10:11.133Z,2123.00
2024-01-11T09:11:11.193Z,2145.00
2024-01-11T09:12:11.182Z,2174.00
2024-01-11T09:13:12.364Z,2191.00
2024-01-11T09:14:11.254Z,2197.00
2024-01-11T09:15:11.263Z,2030.00
2024-01-11T09:16:11.289Z,1600.00
2024-01-11T09:17:11.398Z,1607.00
2024-01-11T09:18:11.546Z,1509.00
2024-01-11T09:19:11.519Z,1261.00
2024-01-11T09:20:11.484Z,1426.00
2024-01-11T09:21:11.417Z,1248.00
2024-01-11T09:22:11.796Z,1223.00
2024-01-11T09:23:11.513Z,1166.00
2024-01-11T09:24:11.555Z,1163.00
2024-01-11T09:25:11.617Z,1162.00
2024-01-11T09:26:11.740Z,1266.00
2024-01-11T09:27:11.802Z,1273.00
2024-01-11T09:28:11.851Z,1345.00
2024-01-11T09:29:11.950Z,1372.00
2024-01-11T09:30:11.990Z,1388.00
2024-01-11T09:31:12.038Z,1416.00
2024-01-11T09:32:12.156Z,1449.00
2024-01-11T09:33:12.380Z,1471.00
2024-01-11T09:34:12.390Z,1495.00
2024-01-11T09:35:14.994Z,1532.00
2024-01-11T09:36:12.296Z,1555.00
2024-01-11T09:37:12.559Z,1574.00
2024-01-11T09:38:12.320Z,1609.00
2024-01-11T09:39:13.189Z,1627.00
2024-01-11T09:40:12.445Z,1649.00
2024-01-11T09:41:14.656Z,1670.00
2024-01-11T09:42:12.498Z,1700.00
2024-01-11T09:43:12.238Z,1734.00
2024-01-11T09:44:12.254Z,1760.00
2024-01-11T09:45:12.187Z,1785.00
2024-01-11T09:46:12.211Z,1827.00
2024-01-11T09:47:15.237Z,1847.00
2024-01-11T09:48:12.325Z,1864.00
2024-01-11T09:49:12.142Z,1889.00
2024-01-11T09:50:12.031Z,1918.00
2024-01-11T09:51:11.973Z,1939.00
2024-01-11T09:52:12.040Z,1958.00
2024-01-11T09:53:14.572Z,1979.00
2024-01-11T09:54:11.816Z,1999.00
2024-01-11T09:55:11.765Z,2015.00
2024-01-11T09:56:11.853Z,2037.00
2024-01-11T09:57:11.679Z,2080.00
2024-01-11T09:58:11.608Z,2092.00
2024-01-11T09:59:11.889Z,2122.00
2024-01-11T10:00:11.490Z,2141.00
2024-01-11T10:01:11.516Z,2161.00
2024-01-11T10:02:11.501Z,2191.00
2024-01-11T10:03:11.379Z,2225.00
2024-01-11T10:04:11.425Z,2251.00
2024-01-11T10:05:11.824Z,2273.00
2024-01-11T10:06:12.345Z,2313.00
2024-01-11T10:07:11.318Z,2328.00
2024-01-11T10:08:11.295Z,2345.00
2024-01-11T10:09:11.293Z,2405.00
2024-01-11T10:10:11.249Z,2424.00
2024-01-11T10:11:11.264Z,2456.00
2024-01-11T10:12:11.234Z,2474.00
2024-01-11T10:13:11.322Z,2488.00
2024-01-11T10:14:12.078Z,2517.00
2024-01-11T10:15:11.515Z,2550.00
2024-01-11T10:16:11.189Z,2563.00
2024-01-11T10:17:14.957Z,2587.00
2024-01-11T10:18:12.249Z,2651.00
2024-01-11T10:19:11.175Z,2730.00
2024-01-11T10:20:11.235Z,2722.00
2024-01-11T10:21:11.085Z,2730.00
2024-01-11T10:22:10.914Z,2740.00
2024-01-11T10:23:10.863Z,2747.00
2024-01-11T10:24:12.497Z,2435.00
2024-01-11T10:25:10.751Z,2275.00
2024-01-11T10:26:10.715Z,2165.00
2024-01-11T10:27:10.629Z,1933.00
2024-01-11T10:28:10.570Z,1853.00
2024-01-11T10:29:11.193Z,1838.00
2024-01-11T10:30:10.485Z,1660.00
2024-01-11T10:31:10.423Z,1659.00
2024-01-11T10:32:10.426Z,1702.00
2024-01-11T10:33:10.507Z,1638.00
2024-01-11T10:34:11.347Z,1616.00
2024-01-11T10:35:10.294Z,1557.00
2024-01-11T10:36:10.286Z,1465.00
2024-01-11T10:37:10.161Z,1413.00
2024-01-11T10:38:10.159Z,1423.00
2024-01-11T10:39:10.067Z,1407.00
2024-01-11T10:40:10.020Z,1319.00
2024-01-11T10:41:10.026Z,1293.00
2024-01-11T10:42:09.908Z,1286.00
2024-01-11T10:43:09.862Z,1294.00
2024-01-11T10:44:09.835Z,1349.00
2024-01-11T10:45:09.850Z,1388.00
2024-01-11T10:46:09.700Z,1391.00
2024-01-11T10:47:10.629Z,1428.00
2024-01-11T10:48:09.819Z,1508.00
2024-01-11T10:49:09.639Z,1537.00
2024-01-11T10:50:09.728Z,1565.00
2024-01-11T10:51:09.643Z,1588.00
2024-01-11T10:52:09.740Z,1626.00
2024-01-11T10:53:09.843Z,1644.00
2024-01-11T10:54:09.740Z,1656.00
2024-01-11T10:55:09.788Z,1674.00
2024-01-11T10:56:10.100Z,1696.00
2024-01-11T10:57:09.860Z,1720.00
2024-01-11T10:58:09.888Z,1734.00
2024-01-11T10:59:09.935Z,1764.00
2024-01-11T11:00:10.604Z,1787.00
2024-01-11T11:01:10.089Z,1804.00
2024-01-11T11:02:10.632Z,1819.00
2024-01-11T11:03:10.377Z,1833.00
2024-01-11T11:04:10.254Z,1870.00
2024-01-11T11:05:10.344Z,1882.00
2024-01-11T11:06:10.442Z,1907.00
2024-01-11T11:07:10.354Z,1932.00
2024-01-11T11:08:10.402Z,1942.00
2024-01-11T11:09:10.419Z,1962.00
2024-01-11T11:10:10.477Z,1995.00
2024-01-11T11:11:10.480Z,2022.00
2024-01-11T11:12:10.467Z,2047.00
2024-01-11T11:13:10.495Z,2086.00
2024-01-11T11:14:10.586Z,2084.00
2024-01-11T11:15:10.603Z,2078.00
2024-01-11T11:16:10.678Z,2070.00
2024-01-11T11:17:10.720Z,2065.00
2024-01-11T11:18:10.754Z,2047.00
2024-01-11T11:19:10.843Z,2037.00
2024-01-11T11:20:10.913Z,2030.00
2024-01-11T11:21:10.957Z,2014.00
2024-01-11T11:22:11.039Z,2001.00
2024-01-11T11:23:11.242Z,1996.00
2024-01-11T11:24:11.188Z,1989.00
2024-01-11T11:25:11.330Z,1986.00
2024-01-11T11:26:11.426Z,1973.00
2024-01-11T11:27:11.435Z,1966.00
2024-01-11T11:28:11.523Z,1952.00
2024-01-11T11:29:11.656Z,1933.00
2024-01-11T11:30:11.743Z,1928.00
2024-01-11T11:31:11.810Z,1922.00
2024-01-11T11:32:11.966Z,1917.00
2024-01-11T11:33:12.468Z,1913.00
2024-01-11T11:34:12.059Z,1896.00
2024-01-11T11:35:12.113Z,1891.00
2024-01-11T11:36:12.125Z,1885.00
2024-01-11T11:37:12.162Z,1876.00
2024-01-11T11:38:12.236Z,1872.00
2024-01-11T11:39:12.297Z,1864.00
2024-01-11T11:40:12.362Z,1855.00
2024-01-11T11:41:12.522Z,1850.00
2024-01-11T11:42:12.619Z,1846.00
2024-01-11T11:43:12.738Z,1839.00
2024-01-11T11:44:12.789Z,1833.00
2024-01-11T11:45:12.827Z,1829.00
2024-01-11T11:46:12.846Z,1824.00
2024-01-11T11:47:12.890Z,1819.00
2024-01-11T11:48:12.984Z,1810.00
2024-01-11T11:49:13.009Z,1806.00
2024-01-11T11:50:13.181Z,1796.00
2024-01-11T11:51:14.954Z,1789.00
2024-01-11T11:52:13.111Z,1784.00
2024-01-11T11:53:13.357Z,1773.00
2024-01-11T11:54:13.185Z,1762.00
2024-01-11T11:55:13.241Z,1751.00
2024-01-11T11:56:13.438Z,1741.00
2024-01-11T11:57:13.339Z,1728.00
2024-01-11T11:58:13.278Z,1724.00
2024-01-11T11:59:13.480Z,1717.00
2024-01-11T12:00:13.415Z,1710.00
2024-01-11T12:01:13.389Z,1703.00
2024-01-11T12:02:13.427Z,1695.00
2024-01-11T12:03:13.414Z,1688.00
2024-01-11T12:04:13.516Z,1683.00
2024-01-11T12:05:13.622Z,1676.00
2024-01-11T12:06:13.572Z,1668.00
2024-01-11T12:07:14.105Z,1662.00
2024-01-11T12:08:13.571Z,1654.00
2024-01-11T12:09:13.534Z,1647.00
2024-01-11T12:10:13.586Z,1641.00
2024-01-11T12:11:13.650Z,1635.00
2024-01-11T12:12:15.975Z,1630.00
2024-01-11T12:13:13.621Z,1627.00
2024-01-11T12:14:13.666Z,1617.00
2024-01-11T12:15:13.665Z,1620.00
2024-01-11T12:16:13.695Z,1650.00
2024-01-11T12:17:13.756Z,1667.00
2024-01-11T12:18:13.841Z,1682.00
2024-01-11T12:19:13.918Z,1727.00
2024-01-11T12:20:13.831Z,1748.00
2024-01-11T12:21:13.830Z,1784.00
2024-01-11T12:22:13.865Z,1810.00